aviador You're here:

GMMX Decoded Metar

MARRAKECH in MOROCCO
Report Time2017-10-21 15:00:00
UTC Time2017-10-21 15:33:00
Flight Rules vfr VFR
WindVRB at 03 kt
Visibility9999 m
Phenomena:N/A
Clouds:N/A
Expected CloudBase > 9,600 ft AGL from Temp-Dew spread
CeilingNone
Temp30°C (ISA +18)
Dew Point06°C (22% RH)
Heat Index28.3°C
AAT28.0°C
QNH1020 hPa
Density Alt3,488 ft
Elevation1,529 ft
Report Wrong Elevation
Raw Report
GMMX 211500Z VRB03KT CAVOK 30/06 Q1020 NOSIG=

Extra information for GMMX:More info

Metar Taf Metar & Taf Last 4 Metars F.Rules Stats Wind Profile Meteogram Temp Stats Airport Information Weather charts Add Link Nearby VenuesMetar ALERT Operation Metar Decoded Social comments